Pagrindinis puslapis
METAR-TAF:

METAR-TAF

Oro uostai :

Larnaka, Kipras

platuma: 34-53N, ilguma: 033-38E, Aukštis: 2 m

Dabartinis oras

Ataskaita buvo paskelbta 11 minutes, ne 22:00 UTC
Vėjas 8 kt iš Šiaurės/Šiaurės Rytų
Temperatūra 21°C
Drėgmė 73%
Slėgis 1011 hPa
Matomumas 10 km arba daugiau
nėra debesų žemiau 1500 m ir nėra kamuolinių lietaus debesų

METAR: LCLK 172200Z 02008KT CAVOK 21/16 Q1011 NOSIG

Laikas: 01:11 (22:11 UTC)

Prognozė

Ataskaita buvo paskelbta 4 valandos ir 41 minutes, ne 17:30 UTC
Prognozė galioja nuo 17 metu 18 UTC su 18 metu 18 UTC
Vėjas 9 kt iš Šiaurės Vakarų
Matomumas 10 km arba daugiau
Mažai debesys ne aukštis 2000 ft
Tikimybė 30% :
Laikinai
nuo 18 metu 00 UTC su 18 metu 05 UTC
Matomumas: 5000 m
Su prošvaistėmis ne aukštis 500 ft
rūkana
Tapsmas
nuo 18 metu 09 UTC su 18 metu 12 UTC
Vėjas 15 kt iš Pietvakarių

TAF: LCLK 171730Z 1718/1818 32009KT 9999 FEW020 PROB30 TEMPO 1800/1805 5000 BR BKN005 BECMG 1809/1812 22015KT

Orai ataskaitas ir orų prognozės (METAR, TAF).

turimą stotys yra geltonos ir raudonos taškus žemėlapyje.

Perkelti pele per norėdami pamatyti stoties vardą.

Tada spustelėkite, norėdami matyti oro stebėjimo ir prognozės.

Norėdami pakeisti žemėlapį: spustelėkite ant žalios mygtukų su juodo kryžiaus žemyn,; žalią mygtuką su brūkšneliu, jei norite nutolinti; arba žalių rodyklių gretimoms žemėlapius.


METAR-TAF: